createdAt,value
2023-09-18T01:00:00.129Z,7.50
2023-09-18T01:05:00.178Z,8.20
2023-09-18T02:08:35.942Z,7.90
2023-09-18T02:10:00.239Z,7.90
2023-09-18T02:20:00.313Z,7.70
2023-09-18T02:25:00.161Z,7.70
2023-09-18T02:35:00.327Z,8.20
2023-09-18T02:45:00.180Z,8.20
2023-09-18T03:00:00.181Z,8.40
2023-09-18T03:10:00.206Z,11.20
2023-09-18T03:20:00.353Z,9.50
2023-09-18T03:35:00.246Z,8.40
2023-09-18T03:50:00.255Z,6.70
2023-09-18T03:55:00.200Z,6.70
2023-09-18T04:00:00.232Z,6.70
2023-09-18T04:05:00.204Z,9.60
2023-09-18T04:15:00.197Z,9.60
2023-09-18T04:20:00.283Z,7.40
2023-09-18T04:25:00.214Z,7.40
2023-09-18T04:30:00.194Z,7.40
2023-09-18T04:35:00.212Z,7.20
2023-09-18T04:50:00.396Z,6.50
2023-09-18T04:55:00.222Z,6.50
2023-09-18T05:00:15.665Z,6.50
2023-09-18T05:05:00.298Z,6.30
2023-09-18T05:10:00.216Z,6.30
2023-09-18T05:15:00.366Z,6.30
2023-09-18T05:20:00.278Z,7.20
2023-09-18T05:25:00.235Z,7.20
2023-09-18T05:35:00.234Z,6.20
2023-09-18T05:45:00.232Z,6.20
2023-09-18T05:50:00.298Z,6.40
2023-09-18T05:55:02.465Z,6.40
2023-09-18T06:00:00.349Z,6.40
2023-09-18T06:15:00.254Z,6.50
2023-09-18T06:20:00.298Z,6.40
2023-09-18T06:25:00.265Z,6.40
2023-09-18T06:35:00.267Z,5.90
2023-09-18T07:05:00.512Z,6.40
2023-09-18T07:25:00.275Z,3.40
2023-09-18T07:30:00.327Z,3.40
2023-09-18T07:35:00.284Z,3.10
2023-09-18T07:40:00.288Z,3.10
2023-09-18T07:45:00.319Z,3.10
2023-09-18T07:55:00.364Z,3.10
2023-09-18T08:00:00.298Z,3.10
2023-09-18T08:05:00.323Z,2.50
2023-09-18T08:10:00.289Z,2.50
2023-09-18T08:15:00.360Z,2.50
2023-09-18T08:20:00.310Z,2.40
2023-09-18T08:30:00.321Z,2.40
2023-09-18T08:35:00.312Z,2.40
2023-09-18T08:45:00.321Z,2.40
2023-09-18T08:50:00.327Z,1.80
2023-09-18T09:00:00.345Z,1.80
2023-09-18T09:05:00.438Z,2.00
2023-09-18T09:10:00.383Z,2.00
2023-09-18T09:15:00.448Z,2.00
2023-09-18T09:20:00.317Z,2.30
2023-09-18T09:25:00.367Z,2.30
2023-09-18T09:30:00.385Z,2.30
2023-09-18T09:35:00.325Z,2.10
2023-09-18T09:40:00.359Z,2.10
2023-09-18T09:45:00.437Z,2.10
2023-09-18T09:50:00.349Z,2.30
2023-09-18T09:55:00.336Z,2.30
2023-09-18T10:00:00.337Z,2.30
2023-09-18T10:05:00.348Z,1.90
2023-09-18T10:10:00.310Z,1.90
2023-09-18T10:15:02.887Z,1.90
2023-09-18T10:20:00.320Z,2.20
2023-09-18T10:25:00.370Z,2.20
2023-09-18T10:30:00.333Z,2.20
2023-09-18T10:35:00.393Z,2.20
2023-09-18T10:40:00.434Z,2.20
2023-09-18T10:45:00.389Z,2.20
2023-09-18T10:50:00.360Z,2.90
2023-09-18T10:55:00.363Z,2.90
2023-09-18T11:00:00.511Z,2.90
2023-09-18T11:05:00.399Z,2.50
2023-09-18T11:10:00.374Z,2.50
2023-09-18T11:15:00.446Z,2.50
2023-09-18T11:20:00.349Z,2.30
2023-09-18T11:25:15.064Z,2.30
2023-09-18T11:30:00.388Z,2.30
2023-09-18T11:35:00.391Z,2.40
2023-09-18T11:40:00.362Z,2.40
2023-09-18T11:45:00.525Z,2.40
2023-09-18T11:50:00.927Z,2.80
2023-09-18T11:55:00.425Z,2.80
2023-09-18T12:00:00.539Z,2.80
2023-09-18T12:05:00.384Z,2.80
2023-09-18T12:10:00.400Z,2.80
2023-09-18T12:15:00.392Z,2.80
2023-09-18T12:20:00.360Z,3.50
2023-09-18T12:25:00.441Z,3.50
2023-09-18T12:30:00.398Z,3.50
2023-09-18T12:35:00.425Z,3.00
2023-09-18T12:40:00.402Z,3.00
2023-09-18T12:45:00.466Z,3.00
2023-09-18T12:50:00.392Z,3.10
2023-09-18T12:55:00.451Z,3.10
2023-09-18T13:00:00.442Z,3.10
2023-09-18T13:05:00.681Z,3.20
2023-09-18T13:10:00.426Z,3.20
2023-09-18T13:15:00.452Z,3.20
2023-09-18T13:20:00.408Z,2.50
2023-09-18T13:25:00.411Z,2.50
2023-09-18T13:30:00.420Z,2.50
2023-09-18T13:35:00.392Z,2.60
2023-09-18T13:40:00.434Z,2.60
2023-09-18T13:45:00.487Z,2.60
2023-09-18T13:50:00.431Z,2.40
2023-09-18T13:55:00.428Z,2.40
2023-09-18T14:00:00.481Z,2.40
2023-09-18T14:05:00.492Z,2.50
2023-09-18T14:10:00.459Z,2.50
2023-09-18T14:15:00.493Z,2.50
2023-09-18T14:20:00.452Z,2.00
2023-09-18T14:25:00.430Z,2.00
2023-09-18T14:30:00.560Z,2.00
2023-09-18T14:40:00.468Z,1.90
2023-09-18T14:45:00.494Z,1.90
2023-09-18T14:50:00.457Z,1.90
2023-09-18T14:55:00.462Z,1.90
2023-09-18T15:00:00.460Z,1.90
2023-09-18T15:05:00.483Z,2.10
2023-09-18T15:10:00.493Z,2.10
2023-09-18T15:15:00.481Z,2.10
2023-09-18T15:20:00.490Z,1.90
2023-09-18T15:25:01.067Z,1.90
2023-09-18T15:30:00.549Z,1.90
2023-09-18T15:35:00.583Z,2.00
2023-09-18T15:40:06.146Z,2.00
2023-09-18T15:45:00.570Z,2.00
2023-09-18T15:50:00.488Z,2.00
2023-09-18T15:55:00.482Z,2.00
2023-09-18T16:10:00.516Z,1.10
2023-09-18T16:15:00.564Z,1.10
2023-09-18T16:20:00.496Z,0.80
2023-09-18T16:35:00.514Z,1.10
2023-09-18T16:40:00.565Z,1.10
2023-09-18T16:45:00.518Z,1.10
2023-09-18T16:50:00.498Z,1.00
2023-09-18T16:55:00.514Z,1.00
2023-09-18T17:00:00.509Z,1.00
2023-09-18T17:05:00.529Z,1.50
2023-09-18T17:10:00.527Z,1.50
2023-09-18T17:15:00.613Z,1.50
2023-09-18T17:20:00.521Z,1.00
2023-09-18T17:25:00.495Z,1.00
2023-09-18T17:30:00.625Z,1.00
2023-09-18T17:40:00.509Z,1.20
2023-09-18T17:50:00.515Z,1.50
2023-09-18T18:15:00.628Z,1.60
2023-09-18T18:30:00.585Z,1.90
2023-09-18T18:45:00.619Z,2.00
2023-09-18T18:50:00.584Z,2.10
2023-09-18T18:55:00.557Z,2.10
2023-09-18T19:05:00.539Z,2.50
2023-09-18T19:10:00.633Z,2.50
2023-09-18T19:25:00.564Z,2.20
2023-09-18T19:30:00.689Z,2.20
2023-09-18T19:55:00.588Z,2.30
2023-09-18T20:10:00.599Z,2.10
2023-09-18T20:15:00.660Z,2.10
2023-09-18T20:30:00.646Z,2.10
2023-09-18T20:35:00.611Z,2.20
2023-09-18T20:50:00.644Z,1.90
2023-09-18T20:55:00.605Z,1.90
2023-09-18T21:00:00.784Z,1.90
2023-09-18T21:05:00.600Z,1.80
2023-09-18T21:15:00.674Z,1.80
2023-09-18T21:20:00.627Z,1.80
2023-09-18T21:25:00.623Z,1.80
2023-09-18T21:30:00.660Z,1.80
2023-09-18T21:35:00.620Z,2.30
2023-09-18T21:40:00.643Z,2.30
2023-09-18T21:50:00.702Z,2.20
2023-09-18T22:00:00.661Z,2.20
2023-09-18T22:05:00.633Z,1.80
2023-09-18T22:10:00.637Z,1.80
2023-09-18T22:15:00.712Z,1.80
2023-09-18T22:20:00.650Z,2.70
2023-09-18T22:30:00.739Z,2.70
2023-09-18T22:50:00.655Z,2.40
2023-09-18T22:55:00.662Z,2.40
2023-09-18T23:00:00.661Z,2.00
2023-09-18T23:05:00.659Z,2.00
2023-09-18T23:15:00.672Z,2.60
2023-09-18T23:20:00.662Z,2.60
2023-09-18T23:25:00.688Z,2.60
2023-09-18T23:30:00.691Z,1.90
2023-09-18T23:35:00.807Z,1.90
2023-09-18T23:40:00.644Z,1.90
2023-09-18T23:50:00.653Z,1.60
